Terminal Aerodrome Forecast
Issued by NWS

Home | Current Version | Previous Version | Text Only | Print | Product List | Glossary Off
Versions: 1 2 3 4 5 6 7 8 9 10 11 12 13 14 15 16 17 18

000
FTUS43 KIWX 241735
TAFSBN
TAF
KSBN 241735Z 2418/2518 21016G28KT P6SM BKN200
     FM242300 21011KT P6SM BKN025
     FM250500 20010KT 6SM BR VCSH OVC015
     FM250900 20008KT 5SM SHRA BR OVC015
     FM251200 19006KT 2SM SHRA BR OVC009=

USA.gov is the U.S. government's official web portal to all federal, state and local government web resources and services.